createdAt,value
2023-02-14T00:01:11.584Z,62.01
2023-02-14T00:03:40.392Z,61.44
2023-02-14T00:06:09.546Z,61.51
2023-02-14T00:08:36.720Z,61.63
2023-02-14T00:11:05.265Z,61.79
2023-02-14T00:13:32.223Z,62.32
2023-02-14T00:15:59.144Z,61.76
2023-02-14T00:18:46.484Z,61.84
2023-02-14T00:21:15.338Z,61.92
2023-02-14T00:23:42.308Z,62.70
2023-02-14T00:26:14.854Z,62.12
2023-02-14T00:28:42.022Z,61.84
2023-02-14T00:31:09.535Z,62.09
2023-02-14T00:33:37.743Z,62.38
2023-02-14T00:36:06.926Z,62.29
2023-02-14T00:38:35.241Z,61.96
2023-02-14T00:41:02.666Z,61.84
2023-02-14T00:43:29.854Z,62.25
2023-02-14T00:45:57.505Z,61.86
2023-02-14T00:48:24.605Z,61.47
2023-02-14T00:50:51.534Z,61.81
2023-02-14T00:53:18.442Z,61.96
2023-02-14T00:55:49.303Z,61.44
2023-02-14T00:58:16.151Z,61.82
2023-02-14T01:00:43.023Z,60.97
2023-02-14T01:03:10.252Z,61.47
2023-02-14T01:05:37.302Z,61.36
2023-02-14T01:08:04.862Z,61.42
2023-02-14T01:10:31.743Z,61.12
2023-02-14T01:12:59.961Z,60.90
2023-02-14T01:15:26.890Z,60.79
2023-02-14T01:17:53.830Z,60.75
2023-02-14T01:20:20.893Z,60.65
2023-02-14T01:22:47.773Z,60.92
2023-02-14T01:25:14.895Z,60.99
2023-02-14T01:27:41.985Z,60.93
2023-02-14T01:30:12.731Z,60.50
2023-02-14T01:32:39.654Z,60.65
2023-02-14T01:35:07.136Z,60.72
2023-02-14T01:37:34.025Z,60.59
2023-02-14T01:40:02.330Z,60.52
2023-02-14T01:42:29.425Z,61.03
2023-02-14T01:45:02.302Z,61.01
2023-02-14T01:47:36.994Z,60.79
2023-02-14T01:50:10.137Z,60.50
2023-02-14T01:52:44.390Z,60.17
2023-02-14T01:55:19.160Z,60.55
2023-02-14T01:57:52.221Z,60.68
2023-02-14T02:00:39.598Z,60.95
2023-02-14T02:03:09.378Z,60.45
2023-02-14T02:05:40.836Z,60.49
2023-02-14T02:08:08.385Z,60.30
2023-02-14T02:10:35.245Z,60.76
2023-02-14T02:13:07.280Z,60.14
2023-02-14T02:15:46.171Z,60.89
2023-02-14T02:18:26.629Z,60.99
2023-02-14T02:21:38.754Z,60.80
2023-02-14T02:24:33.643Z,61.57
2023-02-14T02:27:31.431Z,61.51
2023-02-14T02:30:34.724Z,61.11
2023-02-14T02:33:50.798Z,61.53
2023-02-14T02:36:49.462Z,61.64
2023-02-14T02:39:34.460Z,61.50
2023-02-14T02:42:10.503Z,61.57
2023-02-14T02:44:51.982Z,61.79
2023-02-14T02:47:32.726Z,62.20
2023-02-14T02:50:30.588Z,61.97
2023-02-14T02:53:13.255Z,62.34
2023-02-14T02:56:03.323Z,62.03
2023-02-14T02:58:36.786Z,61.77
2023-02-14T03:01:11.338Z,61.97
2023-02-14T03:04:01.269Z,62.07
2023-02-14T03:06:30.733Z,61.98
2023-02-14T03:09:10.402Z,61.79
2023-02-14T03:11:49.101Z,61.55
2023-02-14T03:14:26.174Z,61.99
2023-02-14T03:17:05.209Z,61.83
2023-02-14T03:20:10.416Z,61.24
2023-02-14T03:22:51.398Z,62.10
2023-02-14T03:25:37.144Z,61.58
2023-02-14T03:28:16.993Z,61.77
2023-02-14T03:30:57.308Z,61.85
2023-02-14T03:33:32.998Z,61.49
2023-02-14T03:36:08.148Z,61.79
2023-02-14T03:38:43.822Z,61.53
2023-02-14T03:41:21.052Z,61.42
2023-02-14T03:43:53.754Z,61.30
2023-02-14T03:46:26.690Z,62.02
2023-02-14T03:48:58.084Z,62.06
2023-02-14T03:51:34.112Z,61.40
2023-02-14T03:54:04.674Z,61.63
2023-02-14T03:56:40.657Z,61.84
2023-02-14T03:59:15.496Z,61.76
2023-02-14T04:01:50.417Z,61.12
2023-02-14T04:04:22.497Z,62.01
2023-02-14T04:06:49.525Z,61.99
2023-02-14T04:09:16.495Z,61.14
2023-02-14T04:11:46.333Z,61.18
2023-02-14T04:14:13.371Z,61.67
2023-02-14T04:16:59.054Z,61.58
2023-02-14T04:19:26.110Z,61.06
2023-02-14T04:21:53.334Z,61.24
2023-02-14T04:24:20.711Z,61.39
2023-02-14T04:27:10.555Z,61.01
2023-02-14T04:29:39.777Z,61.55
2023-02-14T04:32:08.984Z,61.23
2023-02-14T04:34:36.889Z,61.29
2023-02-14T04:37:05.084Z,61.80
2023-02-14T04:39:32.367Z,61.83
2023-02-14T04:42:00.987Z,61.38
2023-02-14T04:44:28.026Z,61.22
2023-02-14T04:46:55.005Z,61.41
2023-02-14T04:49:22.159Z,61.90
2023-02-14T04:51:49.110Z,61.44
2023-02-14T04:54:16.022Z,61.72
2023-02-14T04:56:42.991Z,62.06
2023-02-14T04:59:11.367Z,61.78
2023-02-14T05:01:38.263Z,61.56
2023-02-14T05:04:05.640Z,61.81
2023-02-14T05:06:33.600Z,61.49
2023-02-14T05:09:01.014Z,61.75
2023-02-14T05:11:28.819Z,62.18
2023-02-14T05:13:55.850Z,62.08
2023-02-14T05:16:24.680Z,62.08
2023-02-14T05:18:51.705Z,61.83
2023-02-14T05:21:18.820Z,61.76
2023-02-14T05:23:45.797Z,61.85
2023-02-14T05:26:12.740Z,61.68
2023-02-14T05:28:40.966Z,61.36
2023-02-14T05:31:08.536Z,61.48
2023-02-14T05:33:36.913Z,61.62
2023-02-14T05:36:04.692Z,61.98
2023-02-14T05:38:33.399Z,61.49
2023-02-14T05:41:00.935Z,61.93
2023-02-14T05:43:28.241Z,61.57
2023-02-14T05:45:55.303Z,61.54
2023-02-14T05:48:22.716Z,60.93
2023-02-14T05:50:51.177Z,61.13
2023-02-14T05:53:18.149Z,61.42
2023-02-14T05:55:45.178Z,61.09
2023-02-14T05:58:12.492Z,61.25
2023-02-14T06:00:41.335Z,61.54
2023-02-14T06:03:08.725Z,61.88
2023-02-14T06:05:35.839Z,61.92
2023-02-14T06:08:04.233Z,61.56
2023-02-14T06:10:33.740Z,61.64
2023-02-14T06:13:01.010Z,61.39
2023-02-14T06:15:28.296Z,61.81
2023-02-14T06:17:57.500Z,61.81
2023-02-14T06:20:25.309Z,61.57
2023-02-14T06:22:52.874Z,62.08
2023-02-14T06:25:21.346Z,61.75
2023-02-14T06:27:49.440Z,61.84
2023-02-14T06:30:18.195Z,62.10
2023-02-14T06:32:45.331Z,62.06
2023-02-14T06:35:13.644Z,61.90
2023-02-14T06:37:42.111Z,62.12
2023-02-14T06:40:10.981Z,62.16
2023-02-14T06:42:39.922Z,62.45
2023-02-14T06:45:08.758Z,62.00
2023-02-14T06:47:35.745Z,62.09
2023-02-14T06:50:04.954Z,62.21
2023-02-14T06:52:32.045Z,62.67
2023-02-14T06:54:58.945Z,62.42
2023-02-14T06:57:26.758Z,62.55
2023-02-14T06:59:55.037Z,62.58
2023-02-14T07:02:24.748Z,62.83
2023-02-14T07:04:52.102Z,62.91
2023-02-14T07:07:19.174Z,62.79
2023-02-14T07:09:46.196Z,62.44
2023-02-14T07:12:14.695Z,62.65
2023-02-14T07:14:42.429Z,63.17
2023-02-14T07:17:11.484Z,63.02
2023-02-14T07:19:38.575Z,63.08
2023-02-14T07:22:05.866Z,62.91
2023-02-14T07:24:34.069Z,62.84
2023-02-14T07:27:01.041Z,63.16
2023-02-14T07:29:27.942Z,63.21
2023-02-14T07:31:55.201Z,63.35
2023-02-14T07:34:24.130Z,63.05
2023-02-14T07:36:51.081Z,63.70
2023-02-14T07:39:17.937Z,62.92
2023-02-14T07:41:44.856Z,62.11
2023-02-14T07:44:11.905Z,61.93
2023-02-14T07:46:39.938Z,61.74
2023-02-14T07:49:07.486Z,61.42
2023-02-14T07:51:35.774Z,61.08
2023-02-14T07:54:02.745Z,61.08
2023-02-14T07:56:29.722Z,60.49
2023-02-14T07:58:56.613Z,59.30
2023-02-14T08:01:23.720Z,58.30
2023-02-14T08:03:51.437Z,57.82
2023-02-14T08:06:19.742Z,57.54
2023-02-14T08:08:48.742Z,57.86
2023-02-14T08:11:35.958Z,58.76
2023-02-14T08:14:03.406Z,58.84
2023-02-14T08:16:32.352Z,58.13
2023-02-14T08:19:00.363Z,58.00
2023-02-14T08:21:29.762Z,57.66
2023-02-14T08:23:58.081Z,57.63
2023-02-14T08:26:25.425Z,56.11
2023-02-14T08:28:52.977Z,55.48
2023-02-14T08:31:34.350Z,55.32
2023-02-14T08:34:01.837Z,54.60
2023-02-14T08:36:29.487Z,55.45
2023-02-14T08:38:57.961Z,54.07
2023-02-14T08:41:25.439Z,53.72
2023-02-14T08:43:52.665Z,53.63
2023-02-14T08:46:19.644Z,53.49
2023-02-14T08:48:46.732Z,53.64
2023-02-14T08:51:14.925Z,53.52
2023-02-14T08:53:43.341Z,52.63
2023-02-14T08:56:14.291Z,52.59
2023-02-14T08:58:41.563Z,51.90
2023-02-14T09:01:09.717Z,51.68
2023-02-14T09:03:38.701Z,51.26
2023-02-14T09:06:08.639Z,51.17
2023-02-14T09:08:36.830Z,50.86
2023-02-14T09:11:08.150Z,50.33
2023-02-14T09:13:36.843Z,49.59
2023-02-14T09:16:04.833Z,49.62
2023-02-14T09:18:32.121Z,48.52
2023-02-14T09:20:59.550Z,47.54
2023-02-14T09:23:26.636Z,45.71
2023-02-14T09:26:01.181Z,44.55
2023-02-14T09:28:28.912Z,43.75
2023-02-14T09:30:57.831Z,42.02
2023-02-14T09:33:28.921Z,40.22
2023-02-14T09:36:18.852Z,39.20
2023-02-14T09:38:46.700Z,38.00
2023-02-14T09:42:04.086Z,36.91
2023-02-14T09:44:39.419Z,36.17
2023-02-14T09:47:20.428Z,34.89
2023-02-14T09:49:50.638Z,35.55
2023-02-14T09:52:22.637Z,33.55
2023-02-14T09:54:57.722Z,33.84
2023-02-14T09:57:41.744Z,33.05
2023-02-14T10:00:25.199Z,32.96
2023-02-14T10:03:33.412Z,33.10
2023-02-14T10:06:12.387Z,33.17
2023-02-14T10:09:00.802Z,33.48
2023-02-14T10:11:28.603Z,33.03
2023-02-14T10:14:04.160Z,33.08
2023-02-14T10:16:38.875Z,32.81
2023-02-14T10:19:19.646Z,33.73
2023-02-14T10:21:54.869Z,33.34
2023-02-14T10:24:28.153Z,33.30
2023-02-14T10:29:45.382Z,32.83
2023-02-14T10:32:23.342Z,33.00
2023-02-14T10:35:00.044Z,32.16
2023-02-14T10:37:50.693Z,31.50
2023-02-14T10:40:39.450Z,30.71
2023-02-14T10:43:19.525Z,30.25
2023-02-14T10:46:05.104Z,29.94
2023-02-14T10:48:47.359Z,30.99
2023-02-14T10:51:22.108Z,31.10
2023-02-14T10:54:02.985Z,30.94
2023-02-14T10:56:38.337Z,30.34
2023-02-14T10:59:21.955Z,30.99
2023-02-14T11:01:52.987Z,30.60
2023-02-14T11:04:23.163Z,30.73
2023-02-14T11:06:52.629Z,31.58
2023-02-14T11:09:20.338Z,31.73
2023-02-14T11:11:53.093Z,31.80
2023-02-14T11:14:24.654Z,32.28
2023-02-14T11:16:54.140Z,32.03
2023-02-14T11:19:25.987Z,32.31
2023-02-14T11:21:57.964Z,31.79
2023-02-14T11:24:31.350Z,31.72
2023-02-14T11:27:02.149Z,31.67
2023-02-14T11:29:36.477Z,31.08
2023-02-14T11:32:09.781Z,31.00
2023-02-14T11:34:41.312Z,30.92
2023-02-14T11:37:28.867Z,30.97
2023-02-14T11:39:59.402Z,30.50
2023-02-14T11:42:42.741Z,30.18
2023-02-14T11:45:29.336Z,30.94
2023-02-14T11:48:17.774Z,31.03
2023-02-14T11:50:56.473Z,31.66
2023-02-14T11:53:28.742Z,31.28
2023-02-14T11:55:59.008Z,30.73
2023-02-14T11:58:34.524Z,29.53
2023-02-14T12:01:02.992Z,28.74
2023-02-14T12:03:39.728Z,28.99
2023-02-14T12:06:06.883Z,29.13
2023-02-14T12:08:38.899Z,28.36
2023-02-14T12:11:21.339Z,28.89
2023-02-14T12:13:56.956Z,29.03
2023-02-14T12:16:35.167Z,29.37
2023-02-14T12:19:07.367Z,29.53
2023-02-14T12:21:48.270Z,29.91
2023-02-14T12:24:33.517Z,30.18
2023-02-14T12:27:20.088Z,30.99
2023-02-14T12:29:54.630Z,31.19
2023-02-14T12:32:25.668Z,31.62
2023-02-14T12:35:00.654Z,31.93
2023-02-14T12:37:40.537Z,32.07
2023-02-14T12:40:20.500Z,32.44
2023-02-14T12:43:18.437Z,32.47
2023-02-14T12:46:18.501Z,32.38
2023-02-14T12:49:13.287Z,32.08
2023-02-14T12:51:51.672Z,32.02
2023-02-14T12:54:44.291Z,32.27
2023-02-14T12:57:32.411Z,32.31
2023-02-14T13:00:17.343Z,32.34
2023-02-14T13:03:21.990Z,31.90
2023-02-14T13:06:00.348Z,31.29
2023-02-14T13:08:50.253Z,30.77
2023-02-14T13:11:33.524Z,29.20
2023-02-14T13:14:18.631Z,28.85
2023-02-14T13:16:54.509Z,28.44
2023-02-14T13:19:39.441Z,27.91
2023-02-14T13:22:13.292Z,27.05
2023-02-14T13:24:44.523Z,27.13
2023-02-14T13:27:21.940Z,28.32
2023-02-14T13:29:54.820Z,28.17
2023-02-14T13:32:27.450Z,29.32
2023-02-14T13:34:56.136Z,30.15
2023-02-14T13:37:27.353Z,31.05
2023-02-14T13:40:00.964Z,31.41
2023-02-14T13:42:53.305Z,32.24
2023-02-14T13:45:54.570Z,32.95
2023-02-14T13:48:26.017Z,33.96
2023-02-14T13:50:57.208Z,34.13
2023-02-14T13:53:37.328Z,35.38
2023-02-14T13:56:21.683Z,35.85
2023-02-14T13:58:52.902Z,35.92
2023-02-14T14:01:35.920Z,36.51
2023-02-14T14:04:26.294Z,37.23
2023-02-14T14:07:19.227Z,37.54
2023-02-14T14:09:58.852Z,37.84
2023-02-14T14:12:43.620Z,38.09
2023-02-14T14:15:20.666Z,38.34
2023-02-14T14:18:29.759Z,38.68
2023-02-14T14:20:57.648Z,38.99
2023-02-14T14:23:35.244Z,39.01
2023-02-14T14:26:03.587Z,39.28
2023-02-14T14:28:33.135Z,39.36
2023-02-14T14:31:00.284Z,39.56
2023-02-14T14:33:31.625Z,39.85
2023-02-14T14:36:02.850Z,40.05
2023-02-14T14:38:34.309Z,39.88
2023-02-14T14:41:02.495Z,40.10
2023-02-14T14:43:32.842Z,40.53
2023-02-14T14:46:03.347Z,40.57
2023-02-14T14:48:37.071Z,40.88
2023-02-14T14:51:07.285Z,40.44
2023-02-14T14:53:45.556Z,41.00
2023-02-14T14:56:14.069Z,40.88
2023-02-14T14:58:42.107Z,41.01
2023-02-14T15:01:21.148Z,41.83
2023-02-14T15:03:48.350Z,41.76
2023-02-14T15:06:20.055Z,41.87
2023-02-14T15:08:49.664Z,42.32
2023-02-14T15:11:40.986Z,42.59
2023-02-14T15:14:21.511Z,42.69
2023-02-14T15:16:53.742Z,42.78
2023-02-14T15:19:33.401Z,43.13
2023-02-14T15:22:02.461Z,43.67
2023-02-14T15:24:34.998Z,43.79
2023-02-14T15:27:02.950Z,44.27
2023-02-14T15:29:33.005Z,44.50
2023-02-14T15:32:03.368Z,44.65
2023-02-14T15:34:36.064Z,44.48
2023-02-14T15:37:06.876Z,44.57
2023-02-14T15:39:41.698Z,45.01
2023-02-14T15:42:22.776Z,45.08
2023-02-14T15:44:49.736Z,45.37
2023-02-14T15:47:16.918Z,45.34
2023-02-14T15:49:46.514Z,45.24
2023-02-14T15:52:16.090Z,45.41
2023-02-14T15:54:47.382Z,45.58
2023-02-14T15:57:25.345Z,45.42
2023-02-14T15:59:53.590Z,45.77
2023-02-14T16:02:32.862Z,45.55
2023-02-14T16:05:07.742Z,45.47
2023-02-14T16:07:34.851Z,45.92
2023-02-14T16:10:24.465Z,46.16
2023-02-14T16:13:01.540Z,46.50
2023-02-14T16:15:31.886Z,46.21
2023-02-14T16:17:59.663Z,46.62
2023-02-14T16:20:39.656Z,47.18
2023-02-14T16:23:31.387Z,47.23
2023-02-14T16:25:59.841Z,46.69
2023-02-14T16:28:30.249Z,47.42
2023-02-14T16:31:00.619Z,47.22
2023-02-14T16:33:32.159Z,47.34
2023-02-14T16:36:06.716Z,47.51
2023-02-14T16:38:44.050Z,47.70
2023-02-14T16:41:23.076Z,47.90
2023-02-14T16:43:51.065Z,48.38
2023-02-14T16:46:21.942Z,48.38
2023-02-14T16:48:52.135Z,48.39
2023-02-14T16:51:21.521Z,48.47
2023-02-14T16:53:50.400Z,48.54
2023-02-14T16:56:25.904Z,49.04
2023-02-14T16:58:53.132Z,48.74
2023-02-14T17:01:20.304Z,49.01
2023-02-14T17:03:47.286Z,49.39
2023-02-14T17:06:20.143Z,49.52
2023-02-14T17:08:50.745Z,49.25
2023-02-14T17:11:20.306Z,49.65
2023-02-14T17:13:49.002Z,49.89
2023-02-14T17:16:17.169Z,49.97
2023-02-14T17:18:48.681Z,50.04
2023-02-14T17:21:19.773Z,50.30
2023-02-14T17:23:46.753Z,50.26
2023-02-14T17:26:14.256Z,50.34
2023-02-14T17:28:42.538Z,50.67
2023-02-14T17:31:09.875Z,51.25
2023-02-14T17:33:37.023Z,51.05
2023-02-14T17:36:06.576Z,51.00
2023-02-14T17:38:34.718Z,51.20
2023-02-14T17:41:12.141Z,51.08
2023-02-14T17:43:39.212Z,51.36
2023-02-14T17:46:07.777Z,51.81
2023-02-14T17:48:34.811Z,52.00
2023-02-14T17:51:04.985Z,52.10
2023-02-14T17:53:33.815Z,51.90
2023-02-14T17:56:06.273Z,51.94
2023-02-14T17:58:33.320Z,52.08
2023-02-14T18:01:04.631Z,52.15
2023-02-14T18:03:34.119Z,52.24
2023-02-14T18:06:02.335Z,52.37
2023-02-14T18:08:31.908Z,52.34
2023-02-14T18:10:59.463Z,52.09
2023-02-14T18:13:29.008Z,52.48
2023-02-14T18:16:02.529Z,52.73
2023-02-14T18:18:29.682Z,52.68
2023-02-14T18:21:00.964Z,52.92
2023-02-14T18:23:30.648Z,52.95
2023-02-14T18:26:01.311Z,52.84
2023-02-14T18:28:28.628Z,53.33
2023-02-14T18:30:57.853Z,52.83
2023-02-14T18:33:25.722Z,53.04
2023-02-14T18:35:52.676Z,53.08
2023-02-14T18:38:20.934Z,53.33
2023-02-14T18:40:47.899Z,53.41
2023-02-14T18:43:14.812Z,53.48
2023-02-14T18:45:41.751Z,53.87
2023-02-14T18:48:09.009Z,53.59
2023-02-14T18:50:36.240Z,53.74
2023-02-14T18:53:03.257Z,53.82
2023-02-14T18:55:31.599Z,53.82
2023-02-14T18:57:58.502Z,53.97
2023-02-14T19:00:27.014Z,54.23
2023-02-14T19:02:53.972Z,54.30
2023-02-14T19:05:20.953Z,54.33
2023-02-14T19:07:47.853Z,54.38
2023-02-14T19:10:14.794Z,54.53
2023-02-14T19:12:43.113Z,54.48
2023-02-14T19:15:10.160Z,54.39
2023-02-14T19:17:38.105Z,54.41
2023-02-14T19:20:09.422Z,54.26
2023-02-14T19:22:41.091Z,54.17
2023-02-14T19:25:08.908Z,54.26
2023-02-14T19:27:36.912Z,54.13
2023-02-14T19:30:07.083Z,54.20
2023-02-14T19:32:33.994Z,54.42
2023-02-14T19:35:01.251Z,54.50
2023-02-14T19:37:28.124Z,54.48
2023-02-14T19:39:55.027Z,54.35
2023-02-14T19:42:21.894Z,54.54
2023-02-14T19:44:48.821Z,54.46
2023-02-14T19:47:30.991Z,54.58
2023-02-14T19:50:00.782Z,54.98
2023-02-14T19:52:28.121Z,55.00
2023-02-14T19:54:58.028Z,55.07
2023-02-14T19:57:25.224Z,55.27
2023-02-14T19:59:52.176Z,55.26
2023-02-14T20:02:21.802Z,55.38
2023-02-14T20:04:48.955Z,55.51
2023-02-14T20:07:17.308Z,55.77
2023-02-14T20:09:44.380Z,55.75
2023-02-14T20:12:11.471Z,55.55
2023-02-14T20:14:50.226Z,55.70
2023-02-14T20:17:18.609Z,55.74
2023-02-14T20:19:47.037Z,55.74
2023-02-14T20:22:14.074Z,55.80
2023-02-14T20:24:40.973Z,55.82
2023-02-14T20:27:08.010Z,56.05
2023-02-14T20:29:35.059Z,55.69
2023-02-14T20:32:04.758Z,56.26
2023-02-14T20:34:31.791Z,56.48
2023-02-14T20:37:00.258Z,56.17
2023-02-14T20:39:30.675Z,56.22
2023-02-14T20:41:58.429Z,56.38
2023-02-14T20:44:26.220Z,56.45
2023-02-14T20:46:55.690Z,56.22
2023-02-14T20:49:25.554Z,56.40
2023-02-14T20:51:53.155Z,56.52
2023-02-14T20:54:25.316Z,56.76
2023-02-14T20:56:53.327Z,56.67
2023-02-14T20:59:26.918Z,57.00
2023-02-14T21:01:54.904Z,56.97
2023-02-14T21:04:22.317Z,57.08
2023-02-14T21:06:49.302Z,56.95
2023-02-14T21:09:18.448Z,56.79
2023-02-14T21:11:46.728Z,57.21
2023-02-14T21:14:13.698Z,57.23
2023-02-14T21:16:40.617Z,57.16
2023-02-14T21:19:07.595Z,57.11
2023-02-14T21:21:37.133Z,57.54
2023-02-14T21:24:07.749Z,57.29
2023-02-14T21:26:35.182Z,57.17
2023-02-14T21:29:04.256Z,57.62
2023-02-14T21:31:31.841Z,57.82
2023-02-14T21:34:01.497Z,57.68
2023-02-14T21:36:31.485Z,57.78
2023-02-14T21:38:59.922Z,57.74
2023-02-14T21:41:30.145Z,57.90
2023-02-14T21:43:59.126Z,57.99
2023-02-14T21:46:31.048Z,57.93
2023-02-14T21:49:18.673Z,58.12
2023-02-14T21:51:46.892Z,58.21
2023-02-14T21:54:14.805Z,58.35
2023-02-14T21:56:42.434Z,58.34
2023-02-14T21:59:09.693Z,58.05
2023-02-14T22:01:41.909Z,58.58
2023-02-14T22:04:11.543Z,58.13
2023-02-14T22:06:41.465Z,58.31
2023-02-14T22:09:10.960Z,58.36
2023-02-14T22:11:38.168Z,58.26
2023-02-14T22:14:05.255Z,58.13
2023-02-14T22:16:32.658Z,58.49
2023-02-14T22:19:00.858Z,58.36
2023-02-14T22:21:30.101Z,58.07
2023-02-14T22:23:56.957Z,58.08
2023-02-14T22:26:26.533Z,58.91
2023-02-14T22:28:56.988Z,58.29
2023-02-14T22:31:26.589Z,57.91
2023-02-14T22:33:54.048Z,58.25
2023-02-14T22:36:22.448Z,58.38
2023-02-14T22:38:49.577Z,58.38
2023-02-14T22:41:19.064Z,58.75
2023-02-14T22:43:46.592Z,58.06
2023-02-14T22:46:17.377Z,58.66
2023-02-14T22:48:46.269Z,58.78
2023-02-14T22:51:20.779Z,58.12
2023-02-14T22:53:50.644Z,59.03
2023-02-14T22:56:20.219Z,59.11
2023-02-14T22:58:47.571Z,58.87
2023-02-14T23:01:16.863Z,58.63
2023-02-14T23:03:45.530Z,58.63
2023-02-14T23:06:14.732Z,58.67
2023-02-14T23:08:44.054Z,58.31
2023-02-14T23:11:15.884Z,58.00
2023-02-14T23:14:01.845Z,58.48
2023-02-14T23:16:47.549Z,58.47
2023-02-14T23:19:36.201Z,58.62
2023-02-14T23:22:09.925Z,58.14
2023-02-14T23:24:37.227Z,58.17
2023-02-14T23:27:06.336Z,58.17
2023-02-14T23:29:33.788Z,58.87
2023-02-14T23:32:00.731Z,58.61
2023-02-14T23:34:30.620Z,57.77
2023-02-14T23:36:58.021Z,57.56
2023-02-14T23:39:25.654Z,58.16
2023-02-14T23:41:53.224Z,58.00
2023-02-14T23:44:24.620Z,57.80
2023-02-14T23:46:55.244Z,58.24
2023-02-14T23:49:23.920Z,57.85
2023-02-14T23:51:52.979Z,58.09
2023-02-14T23:54:22.170Z,58.42
2023-02-14T23:56:50.036Z,58.09
2023-02-14T23:59:17.022Z,58.00
